Time;durP1;ratioP1;P1;durP2;ratioP2;P2;SDS_P1;SDS_P2;PMS_P1;PMS_P2;Temp;Humidity;BMP_temperature;BMP_pressure;BME280_temperature;BME280_humidity;BME280_pressure;Samples;Min_cycle;Max_cycle;Signal;HPM_P1;HPM_P2
2022/03/24 00:08:49;;;;;;;0.20;0.10;;;11.20;99.90;;;;;;20813423;28;20249;-69
2022/03/24 00:18:54;;;;;;;0.20;0.10;;;11.30;99.90;;;;;;20859053;28;20293;-70
2022/03/24 00:28:58;;;;;;;0.20;0.10;;;11.30;99.90;;;;;;20877899;28;20226;-69
2022/03/24 00:39:04;;;;;;;0.20;0.10;;;11.40;99.90;;;;;;20863885;28;20734;-71
2022/03/24 00:49:07;;;;;;;0.23;0.23;;;11.40;99.90;;;;;;20858915;28;20505;-70
2022/03/24 00:59:13;;;;;;;0.20;0.10;;;11.50;99.90;;;;;;20889515;28;20206;-69
2022/03/24 01:09:17;;;;;;;0.20;0.10;;;11.50;99.90;;;;;;20890948;28;20230;-68
2022/03/24 01:19:22;;;;;;;0.20;0.10;;;11.60;99.90;;;;;;20840082;28;20306;-74
2022/03/24 01:29:26;;;;;;;0.20;0.10;;;11.50;99.90;;;;;;20809532;28;20333;-76
2022/03/24 01:39:31;;;;;;;0.20;0.10;;;11.60;99.90;;;;;;20842445;28;20203;-78
2022/03/24 01:49:38;;;;;;;0.20;0.10;;;11.60;99.90;;;;;;20858989;28;20268;-79
2022/03/24 01:59:43;;;;;;;0.20;0.10;;;11.60;99.90;;;;;;20887336;28;20212;-77
2022/03/24 02:09:47;;;;;;;0.20;0.10;;;11.60;99.90;;;;;;20869555;28;20245;-78
2022/03/24 02:19:52;;;;;;;0.20;0.10;;;11.70;99.90;;;;;;20829733;28;20222;-79
2022/03/24 02:29:57;;;;;;;0.20;0.10;;;11.60;99.90;;;;;;20801882;28;20282;-78
2022/03/24 02:40:01;;;;;;;0.20;0.10;;;11.60;99.90;;;;;;20856807;28;20210;-76
2022/03/24 02:50:09;;;;;;;0.20;0.10;;;11.50;99.90;;;;;;20810103;28;20466;-77
2022/03/24 03:00:15;;;;;;;0.27;0.27;;;11.50;99.90;;;;;;20801968;28;20207;-78
2022/03/24 03:10:20;;;;;;;0.20;0.10;;;11.60;99.90;;;;;;20783234;28;20226;-80
2022/03/24 03:20:24;;;;;;;0.20;0.10;;;11.60;99.90;;;;;;20858360;28;20237;-78
2022/03/24 03:30:34;;;;;;;0.20;0.17;;;11.50;99.90;;;;;;20879945;28;20317;-77
2022/03/24 03:40:38;;;;;;;0.20;0.10;;;11.50;99.90;;;;;;20837493;28;20203;-78
2022/03/24 03:50:43;;;;;;;0.20;0.10;;;11.60;99.90;;;;;;20859113;28;20244;-76
2022/03/24 04:00:56;;;;;;;0.20;0.10;;;11.60;99.90;;;;;;20861894;28;20220;-77
2022/03/24 04:11:02;;;;;;;0.20;0.10;;;11.60;99.90;;;;;;20879286;28;20303;-76
2022/03/24 04:21:07;;;;;;;0.20;0.10;;;11.50;99.90;;;;;;20801672;28;20247;-70
2022/03/24 04:31:12;;;;;;;0.20;0.10;;;11.40;99.90;;;;;;20797427;28;20215;-70
2022/03/24 04:41:16;;;;;;;0.20;0.10;;;11.50;99.90;;;;;;20840016;28;20198;-69
2022/03/24 04:51:22;;;;;;;0.37;0.37;;;11.40;99.90;;;;;;20875670;28;20244;-69
2022/03/24 05:01:25;;;;;;;0.20;0.10;;;11.70;99.90;;;;;;20890768;28;20434;-65
2022/03/24 05:11:30;;;;;;;0.20;0.10;;;11.80;99.90;;;;;;20890625;28;20226;-64
2022/03/24 05:21:34;;;;;;;0.20;0.10;;;11.70;99.90;;;;;;20881908;28;20237;-64
2022/03/24 05:31:41;;;;;;;0.20;0.10;;;11.40;99.90;;;;;;20886975;28;20237;-64
2022/03/24 05:41:45;;;;;;;0.20;0.10;;;11.80;99.90;;;;;;20836795;28;20398;-69
2022/03/24 05:51:50;;;;;;;0.20;0.10;;;12.10;99.90;;;;;;20870270;28;20229;-68
2022/03/24 06:01:54;;;;;;;0.20;0.10;;;12.30;99.90;;;;;;20883550;28;20405;-69
2022/03/24 06:12:01;;;;;;;0.20;0.10;;;12.30;99.90;;;;;;20880993;28;20229;-69
2022/03/24 06:22:07;;;;;;;0.20;0.10;;;12.30;99.90;;;;;;20808842;28;20227;-70
2022/03/24 06:32:13;;;;;;;0.20;0.10;;;12.50;99.90;;;;;;20779905;28;20286;-70
2022/03/24 06:42:17;;;;;;;0.20;0.10;;;12.40;99.90;;;;;;20851217;28;20198;-70
2022/03/24 06:52:23;;;;;;;0.20;0.10;;;12.20;99.90;;;;;;20785095;28;20251;-71
2022/03/24 07:02:26;;;;;;;0.20;0.10;;;12.20;99.90;;;;;;20786925;28;20210;-74
2022/03/24 07:12:32;;;;;;;0.20;0.10;;;12.50;99.90;;;;;;20785441;28;20373;-71
2022/03/24 07:22:37;;;;;;;0.20;0.10;;;12.70;99.90;;;;;;20782026;28;20195;-70
2022/03/24 08:46:59;;;;;;;0.20;0.10;;;12.90;99.90;;;;;;20869664;28;20221;-64
2022/03/24 08:57:03;;;;;;;0.20;0.10;;;13.00;99.90;;;;;;20964251;28;20218;-64
2022/03/24 09:07:08;;;;;;;0.20;0.10;;;13.10;99.90;;;;;;20964494;28;20342;-63
2022/03/24 09:17:12;;;;;;;0.40;0.30;;;13.00;99.90;;;;;;20953732;28;20239;-63
2022/03/24 09:27:17;;;;;;;0.20;0.10;;;13.00;99.90;;;;;;20939385;28;20233;-63
2022/03/24 09:37:22;;;;;;;0.20;0.10;;;13.20;99.90;;;;;;20897881;28;20221;-63
2022/03/24 09:47:28;;;;;;;0.20;0.10;;;13.20;99.90;;;;;;20949224;28;20234;-64
2022/03/24 09:57:33;;;;;;;0.20;0.10;;;13.40;99.90;;;;;;20871073;28;20221;-63
2022/03/24 10:07:46;;;;;;;0.20;0.10;;;13.50;99.90;;;;;;20868108;28;20238;-63
2022/03/24 10:17:54;;;;;;;0.60;0.60;;;13.90;99.90;;;;;;20863802;28;20237;-63
2022/03/24 10:28:07;;;;;;;0.20;0.10;;;14.50;99.90;;;;;;20850605;28;20225;-62
2022/03/24 10:38:13;;;;;;;0.20;0.20;;;15.00;99.90;;;;;;20848229;28;20213;-63
2022/03/24 10:48:22;;;;;;;0.20;0.10;;;15.50;99.90;;;;;;20864467;28;20245;-63
2022/03/24 10:58:32;;;;;;;0.20;0.10;;;15.10;99.90;;;;;;20860982;28;20432;-63
2022/03/24 11:08:38;;;;;;;0.20;0.10;;;14.90;99.90;;;;;;20842271;28;20222;-63
2022/03/24 11:18:42;;;;;;;0.20;0.10;;;15.30;99.90;;;;;;20866929;28;20229;-63
2022/03/24 11:28:49;;;;;;;0.20;0.10;;;14.90;99.90;;;;;;20865364;28;20229;-61
2022/03/24 11:38:54;;;;;;;0.20;0.10;;;14.90;99.90;;;;;;20845230;28;20257;-63
2022/03/24 11:49:21;;;;;;;0.20;0.20;;;14.90;99.90;;;;;;20872950;28;20237;-64
2022/03/24 11:59:25;;;;;;;0.20;0.10;;;14.50;99.90;;;;;;20887267;28;20404;-65
2022/03/24 12:09:36;;;;;;;0.20;0.10;;;14.00;99.90;;;;;;20880767;28;20233;-65
2022/03/24 12:19:44;;;;;;;0.20;0.10;;;14.30;99.90;;;;;;20877925;28;20222;-65
2022/03/24 12:30:11;;;;;;;0.20;0.10;;;14.20;99.90;;;;;;20874946;28;20230;-64
2022/03/24 12:40:15;;;;;;;0.20;0.10;;;14.20;99.90;;;;;;20858318;28;20206;-62
2022/03/24 12:50:48;;;;;;;0.20;0.10;;;14.00;99.90;;;;;;20877079;28;20293;-63
2022/03/24 13:00:52;;;;;;;0.20;0.10;;;14.40;99.90;;;;;;20841099;28;20210;-63
2022/03/24 13:11:01;;;;;;;0.20;0.10;;;14.90;99.90;;;;;;20858419;28;20275;-63
2022/03/24 13:21:05;;;;;;;0.20;0.10;;;14.70;99.90;;;;;;20828455;28;20250;-63
2022/03/24 13:31:11;;;;;;;0.20;0.10;;;14.80;99.90;;;;;;20806196;28;20230;-71
2022/03/24 13:41:14;;;;;;;0.20;0.10;;;14.80;99.90;;;;;;20816455;28;20202;-76
2022/03/24 13:51:21;;;;;;;0.20;0.10;;;14.80;99.90;;;;;;20855262;28;20481;-70
2022/03/24 14:01:25;;;;;;;0.20;0.10;;;15.20;99.90;;;;;;20872411;28;20202;-68
2022/03/24 14:11:31;;;;;;;0.20;0.10;;;15.20;99.90;;;;;;20878595;28;20305;-76
2022/03/24 14:21:42;;;;;;;0.20;0.10;;;15.00;99.90;;;;;;20864197;28;20206;-79
2022/03/24 14:31:47;;;;;;;0.20;0.10;;;14.70;99.90;;;;;;20878004;28;20237;-79
2022/03/24 14:41:53;;;;;;;0.20;0.10;;;14.70;99.90;;;;;;20860213;28;20202;-79
2022/03/24 14:51:58;;;;;;;0.20;0.10;;;14.60;99.90;;;;;;20870213;28;20230;-79
2022/03/24 15:02:02;;;;;;;0.20;0.10;;;14.60;99.90;;;;;;20869203;28;20198;-78
2022/03/24 15:12:09;;;;;;;0.20;0.10;;;14.60;99.90;;;;;;20868783;28;20228;-80
2022/03/24 15:22:13;;;;;;;0.20;0.10;;;15.20;99.90;;;;;;20865854;28;20210;-70
2022/03/24 15:32:18;;;;;;;0.20;0.10;;;14.90;99.90;;;;;;20862678;28;20233;-69
2022/03/24 15:42:22;;;;;;;0.20;0.10;;;14.70;99.90;;;;;;20845993;28;20205;-70
2022/03/24 15:52:28;;;;;;;0.20;0.07;;;14.50;99.90;;;;;;20862052;28;20226;-68
2022/03/24 16:02:31;;;;;;;0.20;0.10;;;14.50;99.90;;;;;;20830188;28;20198;-69
2022/03/24 16:12:37;;;;;;;0.20;0.10;;;14.40;99.90;;;;;;20864728;28;20230;-70
2022/03/24 16:22:41;;;;;;;0.20;0.10;;;14.60;99.90;;;;;;20862368;28;20202;-70
2022/03/24 16:32:48;;;;;;;0.20;0.10;;;14.70;99.90;;;;;;20864480;28;20233;-69
2022/03/24 16:42:51;;;;;;;0.20;0.10;;;14.40;99.90;;;;;;20858861;28;20209;-69
2022/03/24 16:53:02;;;;;;;0.20;0.03;;;14.00;99.90;;;;;;20876270;28;20242;-70
2022/03/24 17:03:08;;;;;;;0.20;0.10;;;13.80;99.90;;;;;;20882610;28;20220;-73
2022/03/24 17:13:15;;;;;;;0.20;0.10;;;13.80;99.90;;;;;;20880557;28;20233;-78
2022/03/24 17:23:19;;;;;;;0.20;0.10;;;13.80;99.90;;;;;;20882789;28;20206;-78
2022/03/24 17:33:24;;;;;;;0.20;0.10;;;13.80;99.90;;;;;;20879861;28;20218;-79
2022/03/24 17:43:28;;;;;;;0.20;0.10;;;14.00;99.90;;;;;;20883421;28;20247;-77
2022/03/24 17:53:33;;;;;;;0.20;0.10;;;13.90;99.90;;;;;;20874443;28;20241;-70
2022/03/24 18:03:37;;;;;;;0.20;0.10;;;13.90;99.90;;;;;;20879561;28;20229;-70
2022/03/24 18:13:43;;;;;;;0.20;0.10;;;13.80;99.90;;;;;;20882169;28;20237;-82
2022/03/24 18:23:46;;;;;;;0.20;0.10;;;13.90;99.90;;;;;;20883164;28;20491;-64
2022/03/24 18:33:51;;;;;;;0.20;0.00;;;13.90;99.90;;;;;;20872681;28;20230;-64
2022/03/24 18:43:55;;;;;;;0.20;0.10;;;13.80;99.90;;;;;;20792837;28;20286;-63
2022/03/24 18:54:01;;;;;;;0.20;0.10;;;13.80;99.90;;;;;;20912528;28;20308;-64
2022/03/24 19:04:05;;;;;;;0.20;0.10;;;13.70;99.90;;;;;;20957679;28;20205;-78
2022/03/24 19:14:10;;;;;;;0.20;0.10;;;13.80;99.90;;;;;;20956524;28;20229;-77
2022/03/24 19:24:14;;;;;;;0.20;0.10;;;13.60;99.90;;;;;;20942041;28;20196;-77
2022/03/24 19:34:19;;;;;;;0.20;0.10;;;13.40;99.90;;;;;;20961054;28;20281;-76
2022/03/24 19:44:23;;;;;;;0.20;0.10;;;13.40;99.90;;;;;;20960903;28;20198;-76
2022/03/24 19:54:28;;;;;;;0.20;0.10;;;13.30;99.90;;;;;;20879883;28;20234;-74
2022/03/24 20:04:34;;;;;;;0.20;0.10;;;13.30;99.90;;;;;;20843667;28;20198;-79
2022/03/24 20:14:40;;;;;;;0.20;0.10;;;13.20;99.90;;;;;;20878501;28;20254;-74
2022/03/24 20:24:43;;;;;;;0.20;0.10;;;13.30;99.90;;;;;;20875550;28;20198;-73
2022/03/24 20:34:48;;;;;;;0.20;0.20;;;13.20;99.90;;;;;;20893960;28;20676;-76
2022/03/24 20:44:52;;;;;;;0.20;0.10;;;13.00;99.90;;;;;;20815289;28;20202;-74
2022/03/24 20:54:57;;;;;;;0.20;0.10;;;13.10;99.90;;;;;;20812295;28;20261;-77
2022/03/24 21:05:01;;;;;;;0.20;0.10;;;13.10;99.90;;;;;;20809978;28;20206;-77
2022/03/24 21:15:08;;;;;;;0.20;0.10;;;13.00;99.90;;;;;;20809655;28;21186;-70
2022/03/24 21:25:11;;;;;;;0.20;0.10;;;13.00;99.90;;;;;;20810432;28;20245;-71
2022/03/24 21:35:18;;;;;;;0.20;0.10;;;13.10;99.90;;;;;;20840841;28;20249;-68
2022/03/24 21:45:22;;;;;;;0.20;0.10;;;13.10;99.90;;;;;;20804914;28;20218;-70
2022/03/24 21:55:28;;;;;;;2.73;1.80;;;13.10;99.90;;;;;;20945961;28;20256;-70
2022/03/24 22:05:31;;;;;;;0.20;0.10;;;13.00;99.90;;;;;;21001240;28;20209;-70
2022/03/24 22:15:37;;;;;;;0.20;0.10;;;13.10;99.90;;;;;;21049671;28;20229;-70
2022/03/24 22:25:41;;;;;;;0.20;0.10;;;13.00;99.90;;;;;;21050608;28;20197;-72
2022/03/24 22:35:46;;;;;;;0.20;0.10;;;13.00;99.90;;;;;;21008758;28;20580;-70
2022/03/24 22:45:49;;;;;;;0.20;0.10;;;13.00;99.90;;;;;;20948619;28;20292;-77
2022/03/24 22:55:55;;;;;;;0.20;0.10;;;13.00;99.90;;;;;;20890523;28;20233;-76
2022/03/24 23:05:59;;;;;;;0.20;0.10;;;12.90;99.90;;;;;;20873903;28;20334;-76
2022/03/24 23:16:04;;;;;;;0.20;0.10;;;12.90;99.90;;;;;;20781022;28;20223;-79
2022/03/24 23:26:09;;;;;;;0.20;0.10;;;12.90;99.90;;;;;;20799918;28;20218;-64
2022/03/24 23:36:15;;;;;;;0.20;0.10;;;12.80;99.90;;;;;;20832455;28;20202;-63
2022/03/24 23:46:19;;;;;;;0.20;0.10;;;12.80;99.90;;;;;;20899635;28;20228;-63
2022/03/24 23:56:24;;;;;;;0.20;0.10;;;12.70;99.90;;;;;;20908645;28;20281;-63
